createdAt,value
2019-03-11T00:02:16.120Z,77.30
2019-03-11T00:04:43.694Z,77.30
2019-03-11T00:07:11.253Z,76.57
2019-03-11T00:09:39.092Z,76.29
2019-03-11T00:12:06.970Z,76.88
2019-03-11T00:14:34.588Z,76.21
2019-03-11T00:17:02.194Z,76.94
2019-03-11T00:19:29.795Z,76.56
2019-03-11T00:21:57.795Z,76.56
2019-03-11T00:24:25.372Z,76.89
2019-03-11T00:26:52.767Z,76.89
2019-03-11T00:29:20.341Z,77.06
2019-03-11T00:31:48.174Z,77.17
2019-03-11T00:34:17.226Z,77.21
2019-03-11T00:36:44.744Z,77.81
2019-03-11T00:39:12.254Z,77.79
2019-03-11T00:41:41.516Z,77.19
2019-03-11T00:44:12.147Z,77.78
2019-03-11T00:46:39.634Z,77.78
2019-03-11T00:49:07.197Z,77.20
2019-03-11T00:51:35.078Z,77.20
2019-03-11T00:54:02.495Z,77.49
2019-03-11T00:56:30.076Z,77.44
2019-03-11T00:58:57.961Z,77.07
2019-03-11T01:01:25.923Z,77.01
2019-03-11T01:03:53.449Z,77.43
2019-03-11T01:06:20.995Z,77.40
2019-03-11T01:08:48.570Z,77.43
2019-03-11T01:11:16.562Z,77.43
2019-03-11T01:13:44.119Z,77.05
2019-03-11T01:16:11.690Z,77.38
2019-03-11T01:18:39.532Z,77.07
2019-03-11T01:21:08.383Z,76.84
2019-03-11T01:23:35.884Z,76.84
2019-03-11T01:26:03.686Z,76.16
2019-03-11T01:28:31.333Z,75.98
2019-03-11T01:30:58.883Z,76.41
2019-03-11T01:33:26.716Z,76.17
2019-03-11T01:35:54.270Z,76.23
2019-03-11T01:38:21.943Z,76.23
2019-03-11T01:40:49.888Z,75.52
2019-03-11T01:43:17.367Z,76.19
2019-03-11T01:45:45.212Z,76.05
2019-03-11T01:48:12.692Z,76.73
2019-03-11T01:50:40.952Z,76.17
2019-03-11T01:53:08.530Z,76.36
2019-03-11T01:55:36.021Z,76.38
2019-03-11T01:58:04.009Z,77.09
2019-03-11T02:00:31.495Z,76.91
2019-03-11T02:02:59.021Z,77.21
2019-03-11T02:05:28.873Z,76.70
2019-03-11T02:07:56.840Z,76.70
2019-03-11T02:10:24.302Z,76.92
2019-03-11T02:12:51.816Z,76.86
2019-03-11T02:15:19.647Z,76.57
2019-03-11T02:17:47.241Z,76.57
2019-03-11T02:20:14.911Z,76.57
2019-03-11T02:22:44.630Z,76.57
2019-03-11T02:25:15.266Z,76.29
2019-03-11T02:27:45.969Z,76.29
2019-03-11T02:30:13.780Z,76.55
2019-03-11T02:32:41.565Z,76.55
2019-03-11T02:35:13.181Z,76.62
2019-03-11T02:37:40.047Z,76.62
2019-03-11T02:40:10.533Z,76.31
2019-03-11T02:42:38.041Z,76.40
2019-03-11T02:45:07.807Z,76.40
2019-03-11T02:47:35.362Z,76.61
2019-03-11T02:50:03.327Z,76.42
2019-03-11T02:52:31.090Z,75.75
2019-03-11T02:54:58.675Z,75.76
2019-03-11T02:57:26.190Z,75.76
2019-03-11T02:59:53.777Z,76.45
2019-03-11T03:02:49.487Z,75.91
2019-03-11T03:05:20.837Z,75.91
2019-03-11T03:07:48.288Z,76.52
2019-03-11T03:10:15.803Z,76.34
2019-03-11T03:12:46.353Z,76.34
2019-03-11T03:15:16.884Z,76.07
2019-03-11T03:17:44.413Z,75.86
2019-03-11T03:20:11.875Z,76.25
2019-03-11T03:22:42.189Z,75.80
2019-03-11T03:25:09.669Z,76.24
2019-03-11T03:27:37.281Z,76.16
2019-03-11T03:30:04.845Z,76.16
2019-03-11T03:32:32.933Z,76.13
2019-03-11T03:35:00.793Z,76.13
2019-03-11T03:37:28.364Z,75.63
2019-03-11T03:39:56.315Z,76.10
2019-03-11T03:42:25.883Z,76.10
2019-03-11T03:44:53.476Z,76.36
2019-03-11T03:47:20.972Z,75.64
2019-03-11T03:49:48.771Z,75.64
2019-03-11T03:52:16.316Z,75.83
2019-03-11T03:54:50.073Z,75.83
2019-03-11T03:57:17.606Z,76.25
2019-03-11T03:59:45.214Z,75.92
2019-03-11T04:02:12.756Z,75.99
2019-03-11T04:04:40.947Z,76.09
2019-03-11T04:07:08.478Z,76.07
2019-03-11T04:09:36.017Z,76.07
2019-03-11T04:12:03.561Z,76.67
2019-03-11T04:14:31.494Z,76.38
2019-03-11T04:16:58.981Z,76.38
2019-03-11T04:19:29.016Z,76.51
2019-03-11T04:21:58.433Z,76.51
2019-03-11T04:24:26.306Z,76.75
2019-03-11T04:26:53.829Z,76.67
2019-03-11T04:29:21.372Z,76.56
2019-03-11T04:31:48.947Z,76.58
2019-03-11T04:34:19.687Z,76.59
2019-03-11T04:36:47.191Z,76.85
2019-03-11T04:39:14.716Z,76.35
2019-03-11T04:41:42.566Z,75.98
2019-03-11T04:44:10.145Z,75.91
2019-03-11T04:46:41.143Z,75.80
2019-03-11T04:49:08.960Z,75.40
2019-03-11T04:51:36.530Z,75.34
2019-03-11T04:54:04.032Z,75.34
2019-03-11T04:56:32.032Z,75.70
2019-03-11T04:58:59.530Z,75.71
2019-03-11T05:01:33.013Z,75.71
2019-03-11T05:03:56.676Z,75.76
2019-03-11T05:06:24.291Z,76.13
2019-03-11T05:08:51.867Z,75.46
2019-03-11T05:11:22.592Z,75.27
2019-03-11T05:13:50.141Z,75.82
2019-03-11T05:16:20.309Z,75.62
2019-03-11T05:18:48.210Z,75.92
2019-03-11T05:21:16.093Z,75.33
2019-03-11T05:23:43.556Z,75.68
2019-03-11T05:26:11.466Z,75.20
2019-03-11T05:28:40.880Z,75.72
2019-03-11T05:31:08.366Z,75.72
2019-03-11T05:33:36.293Z,75.59
2019-03-11T05:36:03.889Z,75.66
2019-03-11T05:38:31.500Z,75.59
2019-03-11T05:41:02.476Z,75.98
2019-03-11T05:43:33.287Z,75.89
2019-03-11T05:46:03.656Z,76.07
2019-03-11T05:48:33.841Z,76.12
2019-03-11T05:51:03.026Z,76.39
2019-03-11T05:53:30.560Z,76.51
2019-03-11T05:55:58.574Z,75.90
2019-03-11T05:58:26.208Z,75.90
2019-03-11T06:00:53.731Z,76.10
2019-03-11T06:03:21.561Z,76.33
2019-03-11T06:05:52.026Z,75.62
2019-03-11T06:08:22.551Z,75.99
2019-03-11T06:10:50.459Z,76.12
2019-03-11T06:13:17.931Z,76.12
2019-03-11T06:15:45.535Z,75.69
2019-03-11T06:18:13.725Z,75.86
2019-03-11T06:20:48.959Z,75.86
2019-03-11T06:23:16.876Z,75.27
2019-03-11T06:25:44.421Z,75.27
2019-03-11T06:28:31.727Z,74.87
2019-03-11T06:30:59.636Z,75.57
2019-03-11T06:33:27.338Z,75.57
2019-03-11T06:35:54.869Z,75.33
2019-03-11T06:38:25.823Z,75.88
2019-03-11T06:40:53.321Z,76.21
2019-03-11T06:43:20.951Z,76.21
2019-03-11T06:45:49.372Z,76.17
2019-03-11T06:48:16.881Z,76.56
2019-03-11T06:50:44.382Z,76.56
2019-03-11T06:53:14.261Z,76.92
2019-03-11T06:55:41.759Z,77.08
2019-03-11T06:58:09.294Z,77.17
2019-03-11T07:00:39.189Z,77.59
2019-03-11T07:03:07.043Z,77.59
2019-03-11T07:05:37.781Z,77.76
2019-03-11T07:08:05.236Z,77.91
2019-03-11T07:10:33.045Z,77.97
2019-03-11T07:13:01.040Z,78.10
2019-03-11T07:15:28.672Z,78.16
2019-03-11T07:17:56.208Z,78.10
2019-03-11T07:20:25.662Z,78.53
2019-03-11T07:22:53.198Z,78.42
2019-03-11T07:25:20.741Z,78.41
2019-03-11T07:27:48.625Z,78.41
2019-03-11T07:30:16.080Z,78.01
2019-03-11T07:32:43.555Z,77.95
2019-03-11T07:35:12.764Z,77.85
2019-03-11T07:37:41.995Z,77.90
2019-03-11T07:40:09.498Z,77.78
2019-03-11T07:42:37.464Z,78.09
2019-03-11T07:45:04.939Z,78.09
2019-03-11T07:47:32.534Z,77.77
2019-03-11T07:50:00.483Z,77.61
2019-03-11T07:52:27.960Z,77.56
2019-03-11T07:54:58.101Z,78.17
2019-03-11T07:57:27.175Z,78.12
2019-03-11T08:00:03.716Z,78.31
2019-03-11T08:02:31.929Z,78.31
2019-03-11T08:04:59.467Z,78.20
2019-03-11T08:07:30.013Z,78.47
2019-03-11T08:09:57.967Z,78.19
2019-03-11T08:12:27.530Z,78.66
2019-03-11T08:14:57.112Z,79.02
2019-03-11T08:17:24.640Z,78.78
2019-03-11T08:19:55.387Z,79.69
2019-03-11T08:22:31.026Z,79.11
2019-03-11T08:25:02.208Z,79.43
2019-03-11T08:27:29.799Z,79.67
2019-03-11T08:29:59.478Z,79.67
2019-03-11T08:32:26.406Z,79.44
2019-03-11T08:34:53.897Z,78.84
2019-03-11T08:37:21.923Z,78.84
2019-03-11T08:39:49.494Z,78.95
2019-03-11T08:42:17.011Z,79.05
2019-03-11T08:44:48.325Z,78.89
2019-03-11T08:47:16.140Z,78.41
2019-03-11T08:49:44.073Z,78.97
2019-03-11T08:52:11.895Z,78.87
2019-03-11T08:54:41.449Z,78.32
2019-03-11T08:57:08.939Z,78.72
2019-03-11T08:59:39.646Z,78.72
2019-03-11T09:02:07.150Z,78.57
2019-03-11T09:04:34.741Z,78.82
2019-03-11T09:07:02.606Z,78.27
2019-03-11T09:09:31.966Z,78.25
2019-03-11T09:11:59.594Z,78.23
2019-03-11T09:14:27.554Z,78.23
2019-03-11T09:16:57.083Z,78.34
2019-03-11T09:19:24.266Z,78.34
2019-03-11T09:21:52.260Z,78.81
2019-03-11T09:24:22.471Z,79.13
2019-03-11T09:26:50.020Z,78.46
2019-03-11T09:29:21.660Z,78.62
2019-03-11T09:31:49.166Z,78.99
2019-03-11T09:34:16.663Z,78.95
2019-03-11T09:36:44.529Z,78.95
2019-03-11T09:39:12.050Z,79.03
2019-03-11T09:41:47.700Z,78.29
2019-03-11T09:44:15.580Z,78.29
2019-03-11T09:46:46.180Z,78.52
2019-03-11T09:49:13.704Z,78.36
2019-03-11T09:51:42.037Z,78.36
2019-03-11T09:54:09.566Z,77.90
2019-03-11T09:56:43.263Z,77.08
2019-03-11T09:59:27.677Z,77.00
2019-03-11T10:01:56.374Z,77.05
2019-03-11T10:04:24.279Z,77.16
2019-03-11T10:06:51.954Z,77.70
2019-03-11T10:09:19.469Z,77.05
2019-03-11T10:11:47.244Z,77.60
2019-03-11T10:14:14.791Z,76.91
2019-03-11T10:16:42.308Z,76.91
2019-03-11T10:19:10.221Z,77.15
2019-03-11T10:21:37.724Z,77.14
2019-03-11T10:24:05.202Z,76.76
2019-03-11T10:26:35.239Z,76.97
2019-03-11T10:29:02.809Z,76.41
2019-03-11T10:31:30.360Z,76.21
2019-03-11T10:33:58.334Z,75.93
2019-03-11T10:36:30.020Z,76.32
2019-03-11T10:39:14.813Z,76.32
2019-03-11T10:41:45.172Z,75.02
2019-03-11T10:44:12.738Z,74.87
2019-03-11T10:46:44.724Z,74.69
2019-03-11T10:49:11.866Z,74.69
2019-03-11T10:51:39.472Z,74.64
2019-03-11T10:54:07.074Z,74.10
2019-03-11T10:56:34.821Z,73.15
2019-03-11T10:59:02.452Z,73.09
2019-03-11T11:01:45.195Z,71.99
2019-03-11T11:04:06.662Z,71.45
2019-03-11T11:06:34.238Z,71.08
2019-03-11T11:09:01.774Z,71.56
2019-03-11T11:11:31.913Z,71.84
2019-03-11T11:13:59.131Z,71.84
2019-03-11T11:16:34.644Z,72.63
2019-03-11T11:19:02.714Z,73.93
2019-03-11T11:21:30.285Z,75.31
2019-03-11T11:23:57.850Z,76.92
2019-03-11T11:26:30.112Z,76.49
2019-03-11T11:29:00.739Z,76.49
2019-03-11T11:31:28.554Z,77.16
2019-03-11T11:33:57.052Z,77.16
2019-03-11T11:36:26.404Z,77.45
2019-03-11T11:38:54.358Z,76.66
2019-03-11T11:41:22.855Z,76.09
2019-03-11T11:43:53.946Z,75.97
2019-03-11T11:46:25.005Z,76.69
2019-03-11T11:48:52.742Z,76.69
2019-03-11T11:51:20.314Z,76.18
2019-03-11T11:53:48.120Z,75.88
2019-03-11T11:56:15.575Z,75.88
2019-03-11T11:58:43.144Z,75.49
2019-03-11T12:01:11.246Z,74.71
2019-03-11T12:03:38.837Z,74.27
2019-03-11T12:06:09.354Z,75.39
2019-03-11T12:08:37.219Z,75.39
2019-03-11T12:11:04.771Z,75.62
2019-03-11T12:13:34.164Z,75.87
2019-03-11T12:16:03.790Z,76.27
2019-03-11T12:18:31.390Z,76.38
2019-03-11T12:20:59.003Z,76.38
2019-03-11T12:23:26.886Z,76.43
2019-03-11T12:25:54.504Z,76.30
2019-03-11T12:28:23.069Z,76.17
2019-03-11T12:30:51.602Z,76.17
2019-03-11T12:33:20.384Z,75.26
2019-03-11T12:35:48.130Z,75.53
2019-03-11T12:38:15.960Z,75.93
2019-03-11T12:40:43.514Z,75.93
2019-03-11T12:43:11.018Z,75.98
2019-03-11T12:45:40.046Z,76.67
2019-03-11T12:48:07.604Z,76.67
2019-03-11T12:50:35.098Z,77.09
2019-03-11T12:53:04.028Z,77.40
2019-03-11T12:55:32.509Z,77.04
2019-03-11T12:58:00.033Z,77.04
2019-03-11T13:00:27.825Z,76.36
2019-03-11T13:02:55.443Z,73.60
2019-03-11T13:05:23.084Z,72.53
2019-03-11T13:07:50.979Z,72.53
2019-03-11T13:10:24.585Z,72.31
2019-03-11T13:12:51.310Z,73.25
2019-03-11T13:15:19.391Z,73.14
2019-03-11T13:17:50.052Z,73.14
2019-03-11T13:20:19.901Z,72.56
2019-03-11T13:22:47.850Z,72.29
2019-03-11T13:25:15.462Z,72.50
2019-03-11T13:27:43.023Z,72.97
2019-03-11T13:30:10.619Z,72.94
2019-03-11T13:32:41.877Z,72.75
2019-03-11T13:35:09.855Z,72.85
2019-03-11T13:37:37.464Z,72.85
2019-03-11T13:40:05.352Z,71.82
2019-03-11T13:42:36.667Z,71.82
2019-03-11T13:45:04.290Z,73.07
2019-03-11T13:47:33.834Z,73.23
2019-03-11T13:50:05.092Z,73.12
2019-03-11T13:52:32.648Z,73.39
2019-03-11T13:55:10.123Z,73.51
2019-03-11T13:57:32.735Z,73.79
2019-03-11T14:00:00.330Z,73.31
2019-03-11T14:02:27.952Z,72.77
2019-03-11T14:04:55.500Z,72.77
2019-03-11T14:07:23.087Z,72.32
2019-03-11T14:09:53.272Z,72.32
2019-03-11T14:12:20.806Z,71.62
2019-03-11T14:14:48.351Z,71.62
2019-03-11T14:17:17.074Z,71.95
2019-03-11T14:19:45.030Z,72.42
2019-03-11T14:22:12.652Z,72.42
2019-03-11T14:24:40.947Z,71.82
2019-03-11T14:27:12.444Z,70.47
2019-03-11T14:29:39.969Z,70.09
2019-03-11T14:32:10.617Z,70.09
2019-03-11T14:34:39.206Z,70.20
2019-03-11T14:37:06.828Z,70.20
2019-03-11T14:39:38.419Z,69.77
2019-03-11T14:42:05.885Z,69.71
2019-03-11T14:44:33.880Z,69.64
2019-03-11T14:47:03.573Z,70.42
2019-03-11T14:49:31.045Z,70.94
2019-03-11T14:51:58.651Z,70.94
2019-03-11T14:54:29.577Z,72.48
2019-03-11T14:56:58.595Z,73.28
2019-03-11T14:59:29.936Z,73.86
2019-03-11T15:01:57.937Z,73.86
2019-03-11T15:04:28.485Z,74.37
2019-03-11T15:07:01.137Z,73.86
2019-03-11T15:09:29.146Z,73.86
2019-03-11T15:11:57.764Z,74.44
2019-03-11T15:14:25.273Z,74.80
2019-03-11T15:16:56.997Z,74.80
2019-03-11T15:19:24.379Z,74.14
2019-03-11T15:21:51.921Z,73.76
2019-03-11T15:24:19.847Z,73.03
2019-03-11T15:26:47.310Z,72.82
2019-03-11T15:29:15.114Z,72.58
2019-03-11T15:31:42.991Z,72.58
2019-03-11T15:34:10.539Z,72.46
2019-03-11T15:36:40.712Z,72.18
2019-03-11T15:39:12.003Z,71.71
2019-03-11T15:41:39.625Z,71.71
2019-03-11T15:47:05.680Z,71.82
2019-03-11T15:49:33.524Z,70.90
2019-03-11T15:52:01.122Z,71.46
2019-03-11T15:54:30.675Z,70.98
2019-03-11T15:56:58.726Z,70.98
2019-03-11T15:59:27.339Z,70.83
2019-03-11T16:01:55.448Z,71.06
2019-03-11T16:04:23.365Z,72.05
2019-03-11T16:06:55.893Z,72.05
2019-03-11T16:09:23.504Z,71.97
2019-03-11T16:11:52.278Z,72.41
2019-03-11T16:14:19.875Z,73.79
2019-03-11T16:16:47.805Z,73.79
2019-03-11T16:19:15.358Z,74.93
2019-03-11T16:21:42.879Z,74.93
2019-03-11T16:24:10.834Z,75.01
2019-03-11T16:26:40.325Z,75.04
2019-03-11T16:29:10.813Z,75.04
2019-03-11T16:31:40.261Z,75.50
2019-03-11T16:34:09.906Z,76.64
2019-03-11T16:36:37.960Z,76.02
2019-03-11T16:39:07.533Z,76.69
2019-03-11T16:41:37.837Z,76.69
2019-03-11T16:44:05.754Z,76.86
2019-03-11T16:46:33.357Z,77.24
2019-03-11T16:49:00.860Z,76.92
2019-03-11T16:51:28.767Z,76.54
2019-03-11T16:53:56.275Z,76.54
2019-03-11T16:56:23.789Z,77.07
2019-03-11T16:58:51.784Z,77.17
2019-03-11T17:01:21.156Z,77.23
2019-03-11T17:03:50.478Z,76.98
2019-03-11T17:06:20.957Z,77.12
2019-03-11T17:08:50.838Z,77.58
2019-03-11T17:11:19.910Z,77.40
2019-03-11T17:13:47.510Z,77.40
2019-03-11T17:16:16.209Z,77.73
2019-03-11T17:18:44.136Z,77.73
2019-03-11T17:21:16.156Z,77.91
2019-03-11T17:23:43.095Z,77.66
2019-03-11T17:26:10.992Z,78.53
2019-03-11T17:28:38.503Z,78.53
2019-03-11T17:31:06.120Z,78.22
2019-03-11T17:33:38.063Z,78.60
2019-03-11T17:36:03.171Z,78.60
2019-03-11T17:38:35.498Z,78.17
2019-03-11T17:41:02.746Z,78.67
2019-03-11T17:43:31.467Z,78.64
2019-03-11T17:45:59.017Z,78.67
2019-03-11T17:48:32.472Z,78.61
2019-03-11T17:51:00.015Z,78.61
2019-03-11T17:53:29.668Z,78.11
2019-03-11T17:55:57.662Z,78.10
2019-03-11T17:58:25.246Z,78.34
2019-03-11T18:00:55.953Z,78.89
2019-03-11T18:03:26.199Z,78.90
2019-03-11T18:05:57.225Z,78.28
2019-03-11T18:08:25.186Z,78.44
2019-03-11T18:10:52.643Z,78.44
2019-03-11T18:13:22.932Z,78.98
2019-03-11T18:15:53.125Z,78.79
2019-03-11T18:18:20.725Z,78.79
2019-03-11T18:20:48.242Z,79.28
2019-03-11T18:23:24.184Z,79.28
2019-03-11T18:25:54.560Z,79.10
2019-03-11T18:28:25.409Z,78.96
2019-03-11T18:30:54.831Z,78.83
2019-03-11T18:33:22.201Z,79.29
2019-03-11T18:35:52.821Z,79.29
2019-03-11T18:38:22.222Z,79.70
2019-03-11T18:40:54.266Z,79.70
2019-03-11T18:43:21.298Z,79.16
2019-03-11T18:45:51.151Z,78.86
2019-03-11T18:48:23.414Z,79.73
2019-03-11T18:50:51.121Z,79.15
2019-03-11T18:53:19.543Z,79.15
2019-03-11T18:55:49.361Z,79.17
2019-03-11T18:58:21.722Z,79.69
2019-03-11T19:00:52.595Z,79.69
2019-03-11T19:03:20.177Z,79.12
2019-03-11T19:05:47.769Z,79.49
2019-03-11T19:08:18.550Z,79.49
2019-03-11T19:10:46.125Z,79.44
2019-03-11T19:13:13.656Z,79.15
2019-03-11T19:15:41.660Z,79.70
2019-03-11T19:18:12.043Z,79.70
2019-03-11T19:20:39.709Z,79.45
2019-03-11T19:23:07.626Z,78.67
2019-03-11T19:25:35.144Z,79.49
2019-03-11T19:28:05.140Z,78.65
2019-03-11T19:30:37.918Z,78.70
2019-03-11T19:33:05.212Z,79.31
2019-03-11T19:35:35.819Z,78.84
2019-03-11T19:38:04.543Z,79.20
2019-03-11T19:40:38.087Z,78.66
2019-03-11T19:43:03.323Z,78.56
2019-03-11T19:45:33.167Z,79.03
2019-03-11T19:48:02.418Z,79.27
2019-03-11T19:50:36.306Z,78.80
2019-03-11T19:53:03.929Z,79.16
2019-03-11T19:55:35.734Z,79.28
2019-03-11T19:58:03.648Z,79.28
2019-03-11T20:00:31.214Z,78.87
2019-03-11T20:02:58.767Z,79.12
2019-03-11T20:05:26.824Z,79.12
2019-03-11T20:08:00.870Z,79.23
2019-03-11T20:10:28.148Z,79.23
2019-03-11T20:12:56.122Z,78.37
2019-03-11T20:15:25.533Z,78.92
2019-03-11T20:17:52.854Z,78.92
2019-03-11T20:20:20.777Z,78.94
2019-03-11T20:22:51.069Z,78.50
2019-03-11T20:25:18.674Z,78.35
2019-03-11T20:27:46.665Z,78.87
2019-03-11T20:30:14.189Z,78.46
2019-03-11T20:32:41.686Z,78.25
2019-03-11T20:35:11.494Z,79.00
2019-03-11T20:37:39.457Z,78.84
2019-03-11T20:40:12.894Z,78.86
2019-03-11T20:42:40.884Z,78.86
2019-03-11T20:45:13.242Z,78.55
2019-03-11T20:47:43.586Z,78.23
2019-03-11T20:50:13.611Z,78.78
2019-03-11T20:52:42.022Z,78.78
2019-03-11T20:55:12.083Z,78.42
2019-03-11T20:57:45.036Z,78.58
2019-03-11T21:00:12.549Z,78.56
2019-03-11T21:02:40.153Z,78.74
2019-03-11T21:05:08.166Z,78.52
2019-03-11T21:07:38.760Z,77.87
2019-03-11T21:10:06.764Z,77.96
2019-03-11T21:12:34.693Z,78.09
2019-03-11T21:15:02.301Z,78.09
2019-03-11T21:17:29.908Z,78.16
2019-03-11T21:19:57.824Z,78.16
2019-03-11T21:22:25.450Z,77.62
2019-03-11T21:25:00.330Z,77.69
2019-03-11T21:27:31.903Z,78.42
2019-03-11T21:30:02.049Z,78.04
2019-03-11T21:32:29.977Z,78.30
2019-03-11T21:34:59.871Z,77.82
2019-03-11T21:37:27.391Z,77.73
2019-03-11T21:39:55.063Z,78.43
2019-03-11T21:42:25.144Z,78.43
2019-03-11T21:44:52.610Z,78.50
2019-03-11T21:47:20.216Z,78.09
2019-03-11T21:49:55.650Z,78.09
2019-03-11T21:52:23.187Z,78.37
2019-03-11T21:54:52.892Z,78.37
2019-03-11T21:57:20.652Z,78.87
2019-03-11T21:59:48.276Z,78.87
2019-03-11T22:02:15.860Z,78.86
2019-03-11T22:04:43.852Z,78.06
2019-03-11T22:07:11.468Z,78.00
2019-03-11T22:09:39.009Z,78.36
2019-03-11T22:12:10.556Z,78.72
2019-03-11T22:14:36.462Z,78.72
2019-03-11T22:17:05.173Z,78.51
2019-03-11T22:19:33.047Z,78.27
2019-03-11T22:22:00.578Z,78.45
2019-03-11T22:24:28.171Z,78.34
2019-03-11T22:26:56.015Z,78.52
2019-03-11T22:29:24.720Z,78.53
2019-03-11T22:31:54.113Z,78.53
2019-03-11T22:34:22.096Z,78.35
2019-03-11T22:36:49.661Z,78.18
2019-03-11T22:39:20.299Z,77.82
2019-03-11T22:41:47.808Z,77.82
2019-03-11T22:44:15.627Z,78.29
2019-03-11T22:46:43.156Z,78.29
2019-03-11T22:49:10.734Z,78.20
2019-03-11T22:51:41.677Z,78.14
2019-03-11T22:54:11.466Z,78.14
2019-03-11T22:56:49.084Z,78.45
2019-03-11T22:59:21.060Z,78.28
2019-03-11T23:01:48.570Z,78.41
2019-03-11T23:04:16.165Z,78.50
2019-03-11T23:06:43.683Z,79.12
2019-03-11T23:09:11.295Z,78.99
2019-03-11T23:11:39.133Z,78.66
2019-03-11T23:14:06.974Z,78.67
2019-03-11T23:16:34.460Z,78.64
2019-03-11T23:19:02.076Z,79.12
2019-03-11T23:21:29.631Z,78.36
2019-03-11T23:23:57.478Z,78.35
2019-03-11T23:26:25.021Z,78.85
2019-03-11T23:28:52.855Z,78.27
2019-03-11T23:31:21.537Z,78.22
2019-03-11T23:33:49.399Z,78.22
2019-03-11T23:36:17.349Z,78.45
2019-03-11T23:38:45.265Z,78.92
2019-03-11T23:41:15.725Z,78.39
2019-03-11T23:43:43.254Z,78.44
2019-03-11T23:46:11.262Z,78.44
2019-03-11T23:48:38.782Z,78.08
2019-03-11T23:51:06.334Z,78.08
2019-03-11T23:53:33.897Z,78.55
2019-03-11T23:56:01.952Z,78.52
2019-03-11T23:58:29.489Z,78.83
